sensor_id;sensor_type;location;lat;lon;timestamp;P1;durP1;ratioP1;P2;durP2;ratioP2
38111;SDS011;64011;56.312;44.048;2023-04-25T00:01:54;9.40;;;3.25;;
38111;SDS011;64011;56.312;44.048;2023-04-25T00:03:56;15.13;;;3.70;;
38111;SDS011;64011;56.312;44.048;2023-04-25T00:05:57;10.00;;;3.38;;
38111;SDS011;64011;56.312;44.048;2023-04-25T00:07:58;11.90;;;3.47;;
38111;SDS011;64011;56.312;44.048;2023-04-25T00:09:59;11.32;;;3.33;;
38111;SDS011;64011;56.312;44.048;2023-04-25T00:12:00;13.48;;;3.38;;
38111;SDS011;64011;56.312;44.048;2023-04-25T00:14:01;13.20;;;3.63;;
38111;SDS011;64011;56.312;44.048;2023-04-25T00:16:03;13.25;;;3.95;;
38111;SDS011;64011;56.312;44.048;2023-04-25T00:18:04;11.20;;;3.83;;
38111;SDS011;64011;56.312;44.048;2023-04-25T00:20:07;13.40;;;3.63;;
38111;SDS011;64011;56.312;44.048;2023-04-25T00:22:08;12.82;;;4.07;;
38111;SDS011;64011;56.312;44.048;2023-04-25T00:24:09;12.20;;;4.07;;
38111;SDS011;64011;56.312;44.048;2023-04-25T00:26:10;10.52;;;3.45;;
38111;SDS011;64011;56.312;44.048;2023-04-25T00:28:11;11.75;;;3.50;;
38111;SDS011;64011;56.312;44.048;2023-04-25T00:30:13;12.73;;;3.47;;
38111;SDS011;64011;56.312;44.048;2023-04-25T00:32:14;12.18;;;4.00;;
38111;SDS011;64011;56.312;44.048;2023-04-25T00:34:15;12.02;;;3.95;;
38111;SDS011;64011;56.312;44.048;2023-04-25T00:36:17;10.88;;;3.75;;
38111;SDS011;64011;56.312;44.048;2023-04-25T00:38:18;11.18;;;3.70;;
38111;SDS011;64011;56.312;44.048;2023-04-25T00:40:19;13.18;;;3.67;;
38111;SDS011;64011;56.312;44.048;2023-04-25T00:42:20;13.20;;;4.13;;
38111;SDS011;64011;56.312;44.048;2023-04-25T00:44:21;12.05;;;3.80;;
38111;SDS011;64011;56.312;44.048;2023-04-25T00:46:22;10.05;;;3.72;;
38111;SDS011;64011;56.312;44.048;2023-04-25T00:48:23;11.13;;;4.20;;
38111;SDS011;64011;56.312;44.048;2023-04-25T00:50:24;9.23;;;3.60;;
38111;SDS011;64011;56.312;44.048;2023-04-25T00:52:26;15.18;;;4.10;;
38111;SDS011;64011;56.312;44.048;2023-04-25T00:54:27;12.90;;;3.83;;
38111;SDS011;64011;56.312;44.048;2023-04-25T00:56:28;13.85;;;3.80;;
38111;SDS011;64011;56.312;44.048;2023-04-25T00:58:30;9.30;;;3.75;;
38111;SDS011;64011;56.312;44.048;2023-04-25T01:00:31;18.30;;;4.00;;
38111;SDS011;64011;56.312;44.048;2023-04-25T01:02:32;10.98;;;3.75;;
38111;SDS011;64011;56.312;44.048;2023-04-25T01:04:33;11.90;;;3.88;;
38111;SDS011;64011;56.312;44.048;2023-04-25T01:06:34;11.27;;;3.63;;
38111;SDS011;64011;56.312;44.048;2023-04-25T01:08:37;12.63;;;4.03;;
38111;SDS011;64011;56.312;44.048;2023-04-25T01:10:38;10.95;;;3.92;;
38111;SDS011;64011;56.312;44.048;2023-04-25T01:12:39;12.43;;;3.92;;
38111;SDS011;64011;56.312;44.048;2023-04-25T01:14:40;14.13;;;4.32;;
38111;SDS011;64011;56.312;44.048;2023-04-25T01:16:41;10.30;;;3.97;;
38111;SDS011;64011;56.312;44.048;2023-04-25T01:18:42;12.15;;;3.97;;
38111;SDS011;64011;56.312;44.048;2023-04-25T01:20:43;12.18;;;3.80;;
38111;SDS011;64011;56.312;44.048;2023-04-25T01:22:46;16.38;;;4.55;;
38111;SDS011;64011;56.312;44.048;2023-04-25T01:24:47;12.57;;;3.72;;
38111;SDS011;64011;56.312;44.048;2023-04-25T01:26:48;10.02;;;3.63;;
38111;SDS011;64011;56.312;44.048;2023-04-25T01:28:49;12.35;;;3.95;;
38111;SDS011;64011;56.312;44.048;2023-04-25T01:30:50;11.55;;;3.83;;
38111;SDS011;64011;56.312;44.048;2023-04-25T01:32:52;10.23;;;3.85;;
38111;SDS011;64011;56.312;44.048;2023-04-25T01:34:54;13.68;;;4.15;;
38111;SDS011;64011;56.312;44.048;2023-04-25T01:36:55;10.85;;;3.70;;
38111;SDS011;64011;56.312;44.048;2023-04-25T01:38:57;11.75;;;4.03;;
38111;SDS011;64011;56.312;44.048;2023-04-25T01:40:58;11.20;;;4.38;;
38111;SDS011;64011;56.312;44.048;2023-04-25T01:42:59;13.27;;;4.50;;
38111;SDS011;64011;56.312;44.048;2023-04-25T01:45:00;9.95;;;3.78;;
38111;SDS011;64011;56.312;44.048;2023-04-25T01:47:06;11.70;;;4.40;;
38111;SDS011;64011;56.312;44.048;2023-04-25T01:49:07;9.07;;;3.65;;
38111;SDS011;64011;56.312;44.048;2023-04-25T01:51:08;11.50;;;4.07;;
38111;SDS011;64011;56.312;44.048;2023-04-25T01:53:09;11.65;;;3.92;;
38111;SDS011;64011;56.312;44.048;2023-04-25T01:55:11;13.32;;;4.55;;
38111;SDS011;64011;56.312;44.048;2023-04-25T01:57:12;11.82;;;4.10;;
38111;SDS011;64011;56.312;44.048;2023-04-25T01:59:13;9.00;;;3.70;;
38111;SDS011;64011;56.312;44.048;2023-04-25T02:01:14;9.23;;;3.50;;
38111;SDS011;64011;56.312;44.048;2023-04-25T02:03:15;14.27;;;4.40;;
38111;SDS011;64011;56.312;44.048;2023-04-25T02:05:16;11.60;;;3.70;;
38111;SDS011;64011;56.312;44.048;2023-04-25T02:07:17;12.98;;;3.88;;
38111;SDS011;64011;56.312;44.048;2023-04-25T02:09:18;9.68;;;4.03;;
38111;SDS011;64011;56.312;44.048;2023-04-25T02:11:22;13.30;;;3.90;;
38111;SDS011;64011;56.312;44.048;2023-04-25T02:13:22;9.43;;;3.70;;
38111;SDS011;64011;56.312;44.048;2023-04-25T02:15:23;12.73;;;4.15;;
38111;SDS011;64011;56.312;44.048;2023-04-25T02:17:44;12.07;;;4.35;;
38111;SDS011;64011;56.312;44.048;2023-04-25T02:19:45;12.07;;;4.00;;
38111;SDS011;64011;56.312;44.048;2023-04-25T02:21:46;16.02;;;4.30;;
38111;SDS011;64011;56.312;44.048;2023-04-25T02:23:47;11.80;;;4.13;;
38111;SDS011;64011;56.312;44.048;2023-04-25T02:25:48;13.20;;;4.38;;
38111;SDS011;64011;56.312;44.048;2023-04-25T02:27:50;12.38;;;4.28;;
38111;SDS011;64011;56.312;44.048;2023-04-25T02:29:51;13.30;;;4.18;;
38111;SDS011;64011;56.312;44.048;2023-04-25T02:31:53;12.48;;;4.32;;
38111;SDS011;64011;56.312;44.048;2023-04-25T02:33:54;10.80;;;3.83;;
38111;SDS011;64011;56.312;44.048;2023-04-25T02:35:55;11.20;;;4.10;;
38111;SDS011;64011;56.312;44.048;2023-04-25T02:37:56;12.02;;;4.03;;
38111;SDS011;64011;56.312;44.048;2023-04-25T02:39:57;11.88;;;4.10;;
38111;SDS011;64011;56.312;44.048;2023-04-25T02:41:58;13.02;;;4.10;;
38111;SDS011;64011;56.312;44.048;2023-04-25T02:44:00;9.35;;;3.97;;
38111;SDS011;64011;56.312;44.048;2023-04-25T02:46:01;15.18;;;4.10;;
38111;SDS011;64011;56.312;44.048;2023-04-25T02:48:02;11.95;;;3.90;;
38111;SDS011;64011;56.312;44.048;2023-04-25T02:50:03;10.38;;;4.07;;
38111;SDS011;64011;56.312;44.048;2023-04-25T02:52:05;12.68;;;3.80;;
38111;SDS011;64011;56.312;44.048;2023-04-25T02:54:06;14.30;;;4.10;;
38111;SDS011;64011;56.312;44.048;2023-04-25T02:56:06;12.65;;;4.25;;
38111;SDS011;64011;56.312;44.048;2023-04-25T02:58:07;10.90;;;3.92;;
38111;SDS011;64011;56.312;44.048;2023-04-25T03:00:10;10.27;;;4.10;;
38111;SDS011;64011;56.312;44.048;2023-04-25T03:02:12;11.93;;;4.18;;
38111;SDS011;64011;56.312;44.048;2023-04-25T03:04:13;13.70;;;4.20;;
38111;SDS011;64011;56.312;44.048;2023-04-25T03:06:14;12.38;;;4.03;;
38111;SDS011;64011;56.312;44.048;2023-04-25T03:08:14;9.68;;;3.88;;
38111;SDS011;64011;56.312;44.048;2023-04-25T03:10:15;11.38;;;3.90;;
38111;SDS011;64011;56.312;44.048;2023-04-25T03:12:16;14.55;;;4.18;;
38111;SDS011;64011;56.312;44.048;2023-04-25T03:14:17;14.13;;;3.90;;
38111;SDS011;64011;56.312;44.048;2023-04-25T03:16:19;13.98;;;3.80;;
38111;SDS011;64011;56.312;44.048;2023-04-25T03:18:21;11.55;;;3.60;;
38111;SDS011;64011;56.312;44.048;2023-04-25T03:20:22;11.15;;;3.92;;
38111;SDS011;64011;56.312;44.048;2023-04-25T03:22:23;13.45;;;3.72;;
38111;SDS011;64011;56.312;44.048;2023-04-25T03:24:24;9.18;;;4.10;;
38111;SDS011;64011;56.312;44.048;2023-04-25T03:26:25;12.95;;;3.63;;
38111;SDS011;64011;56.312;44.048;2023-04-25T03:28:25;15.02;;;4.22;;
38111;SDS011;64011;56.312;44.048;2023-04-25T03:30:26;14.23;;;4.07;;
38111;SDS011;64011;56.312;44.048;2023-04-25T03:32:29;12.75;;;4.13;;
38111;SDS011;64011;56.312;44.048;2023-04-25T03:34:30;14.23;;;4.28;;
38111;SDS011;64011;56.312;44.048;2023-04-25T03:36:30;12.52;;;4.05;;
38111;SDS011;64011;56.312;44.048;2023-04-25T03:38:31;16.73;;;4.40;;
38111;SDS011;64011;56.312;44.048;2023-04-25T03:40:32;14.55;;;4.10;;
38111;SDS011;64011;56.312;44.048;2023-04-25T03:42:33;17.48;;;4.07;;
38111;SDS011;64011;56.312;44.048;2023-04-25T03:44:34;14.60;;;4.20;;
38111;SDS011;64011;56.312;44.048;2023-04-25T03:46:35;14.13;;;4.50;;
38111;SDS011;64011;56.312;44.048;2023-04-25T03:48:37;12.32;;;4.57;;
38111;SDS011;64011;56.312;44.048;2023-04-25T03:50:38;14.88;;;4.05;;
38111;SDS011;64011;56.312;44.048;2023-04-25T03:52:39;16.17;;;4.07;;
38111;SDS011;64011;56.312;44.048;2023-04-25T03:54:40;12.52;;;4.28;;
38111;SDS011;64011;56.312;44.048;2023-04-25T03:56:40;18.27;;;3.97;;
38111;SDS011;64011;56.312;44.048;2023-04-25T03:58:41;14.48;;;3.72;;
38111;SDS011;64011;56.312;44.048;2023-04-25T04:00:42;11.77;;;4.22;;
38111;SDS011;64011;56.312;44.048;2023-04-25T04:02:43;14.88;;;4.35;;
38111;SDS011;64011;56.312;44.048;2023-04-25T04:04:45;17.05;;;4.60;;
38111;SDS011;64011;56.312;44.048;2023-04-25T04:06:46;15.65;;;4.20;;
38111;SDS011;64011;56.312;44.048;2023-04-25T04:08:47;19.77;;;4.03;;
38111;SDS011;64011;56.312;44.048;2023-04-25T04:10:48;11.57;;;3.50;;
38111;SDS011;64011;56.312;44.048;2023-04-25T04:12:48;13.80;;;4.18;;
38111;SDS011;64011;56.312;44.048;2023-04-25T04:14:49;11.18;;;3.80;;
38111;SDS011;64011;56.312;44.048;2023-04-25T04:16:50;13.50;;;4.18;;
38111;SDS011;64011;56.312;44.048;2023-04-25T04:18:51;12.50;;;4.15;;
38111;SDS011;64011;56.312;44.048;2023-04-25T04:20:53;13.43;;;4.10;;
38111;SDS011;64011;56.312;44.048;2023-04-25T04:22:54;14.15;;;4.20;;
38111;SDS011;64011;56.312;44.048;2023-04-25T04:24:55;14.35;;;4.30;;
38111;SDS011;64011;56.312;44.048;2023-04-25T04:26:56;18.25;;;4.38;;
38111;SDS011;64011;56.312;44.048;2023-04-25T04:28:57;17.08;;;4.35;;
38111;SDS011;64011;56.312;44.048;2023-04-25T04:30:57;14.60;;;4.97;;
38111;SDS011;64011;56.312;44.048;2023-04-25T04:32:58;14.35;;;3.83;;
38111;SDS011;64011;56.312;44.048;2023-04-25T04:34:59;15.95;;;3.90;;
38111;SDS011;64011;56.312;44.048;2023-04-25T04:37:02;12.93;;;3.85;;
38111;SDS011;64011;56.312;44.048;2023-04-25T04:39:03;18.60;;;4.05;;
38111;SDS011;64011;56.312;44.048;2023-04-25T04:41:05;10.43;;;3.50;;
38111;SDS011;64011;56.312;44.048;2023-04-25T04:43:06;17.80;;;4.05;;
38111;SDS011;64011;56.312;44.048;2023-04-25T04:45:07;12.63;;;4.03;;
38111;SDS011;64011;56.312;44.048;2023-04-25T04:47:09;14.52;;;4.20;;
38111;SDS011;64011;56.312;44.048;2023-04-25T04:49:10;12.98;;;3.78;;
38111;SDS011;64011;56.312;44.048;2023-04-25T04:51:12;14.50;;;4.03;;
38111;SDS011;64011;56.312;44.048;2023-04-25T04:53:14;13.95;;;3.80;;
38111;SDS011;64011;56.312;44.048;2023-04-25T04:55:15;16.15;;;4.63;;
38111;SDS011;64011;56.312;44.048;2023-04-25T04:57:16;10.35;;;3.90;;
38111;SDS011;64011;56.312;44.048;2023-04-25T04:59:16;18.55;;;4.22;;
38111;SDS011;64011;56.312;44.048;2023-04-25T05:01:17;11.75;;;3.45;;
38111;SDS011;64011;56.312;44.048;2023-04-25T05:03:18;15.75;;;4.15;;
38111;SDS011;64011;56.312;44.048;2023-04-25T05:05:19;14.43;;;3.85;;
38111;SDS011;64011;56.312;44.048;2023-04-25T05:07:20;10.30;;;3.50;;
38111;SDS011;64011;56.312;44.048;2023-04-25T05:09:22;14.15;;;4.13;;
38111;SDS011;64011;56.312;44.048;2023-04-25T05:11:23;17.02;;;4.13;;
38111;SDS011;64011;56.312;44.048;2023-04-25T05:13:24;14.55;;;4.00;;
38111;SDS011;64011;56.312;44.048;2023-04-25T05:15:25;13.88;;;3.90;;
38111;SDS011;64011;56.312;44.048;2023-04-25T05:17:26;15.60;;;3.97;;
38111;SDS011;64011;56.312;44.048;2023-04-25T05:19:26;15.55;;;3.65;;
38111;SDS011;64011;56.312;44.048;2023-04-25T05:21:27;10.57;;;3.17;;
38111;SDS011;64011;56.312;44.048;2023-04-25T05:23:28;16.65;;;4.07;;
38111;SDS011;64011;56.312;44.048;2023-04-25T05:25:30;12.13;;;4.40;;
38111;SDS011;64011;56.312;44.048;2023-04-25T05:27:31;14.52;;;3.85;;
38111;SDS011;64011;56.312;44.048;2023-04-25T05:29:32;14.13;;;3.78;;
38111;SDS011;64011;56.312;44.048;2023-04-25T05:31:33;12.60;;;3.42;;
38111;SDS011;64011;56.312;44.048;2023-04-25T05:33:34;9.98;;;3.13;;
38111;SDS011;64011;56.312;44.048;2023-04-25T05:35:34;9.57;;;2.85;;
38111;SDS011;64011;56.312;44.048;2023-04-25T05:37:35;10.93;;;3.20;;
38111;SDS011;64011;56.312;44.048;2023-04-25T05:39:36;7.05;;;2.80;;
38111;SDS011;64011;56.312;44.048;2023-04-25T05:41:38;10.40;;;3.50;;
38111;SDS011;64011;56.312;44.048;2023-04-25T05:43:39;10.00;;;2.83;;
38111;SDS011;64011;56.312;44.048;2023-04-25T05:45:40;7.25;;;2.80;;
38111;SDS011;64011;56.312;44.048;2023-04-25T05:47:41;8.70;;;3.00;;
38111;SDS011;64011;56.312;44.048;2023-04-25T05:49:42;8.38;;;2.75;;
38111;SDS011;64011;56.312;44.048;2023-04-25T05:51:42;13.77;;;3.38;;
38111;SDS011;64011;56.312;44.048;2023-04-25T05:53:43;13.10;;;3.00;;
38111;SDS011;64011;56.312;44.048;2023-04-25T05:55:44;12.63;;;3.10;;
38111;SDS011;64011;56.312;44.048;2023-04-25T05:57:47;10.13;;;2.40;;
38111;SDS011;64011;56.312;44.048;2023-04-25T05:59:47;7.90;;;2.50;;
38111;SDS011;64011;56.312;44.048;2023-04-25T06:01:48;12.30;;;2.58;;
38111;SDS011;64011;56.312;44.048;2023-04-25T06:03:49;10.43;;;2.60;;
38111;SDS011;64011;56.312;44.048;2023-04-25T06:05:50;9.48;;;2.40;;
38111;SDS011;64011;56.312;44.048;2023-04-25T06:07:51;12.98;;;2.90;;
38111;SDS011;64011;56.312;44.048;2023-04-25T06:09:52;8.55;;;2.33;;
38111;SDS011;64011;56.312;44.048;2023-04-25T06:11:53;10.48;;;2.90;;
38111;SDS011;64011;56.312;44.048;2023-04-25T06:13:55;7.20;;;2.50;;
38111;SDS011;64011;56.312;44.048;2023-04-25T06:15:56;9.18;;;2.83;;
38111;SDS011;64011;56.312;44.048;2023-04-25T06:17:56;9.68;;;2.45;;
38111;SDS011;64011;56.312;44.048;2023-04-25T06:19:57;7.57;;;2.60;;
38111;SDS011;64011;56.312;44.048;2023-04-25T06:21:58;10.27;;;3.00;;
38111;SDS011;64011;56.312;44.048;2023-04-25T06:23:59;8.85;;;2.78;;
38111;SDS011;64011;56.312;44.048;2023-04-25T06:26:00;13.02;;;2.90;;
38111;SDS011;64011;56.312;44.048;2023-04-25T06:28:01;10.75;;;2.97;;
38111;SDS011;64011;56.312;44.048;2023-04-25T06:30:03;15.48;;;3.45;;
38111;SDS011;64011;56.312;44.048;2023-04-25T06:32:07;15.73;;;3.65;;
38111;SDS011;64011;56.312;44.048;2023-04-25T06:34:08;10.35;;;3.28;;
38111;SDS011;64011;56.312;44.048;2023-04-25T06:36:09;4.57;;;2.33;;
38111;SDS011;64011;56.312;44.048;2023-04-25T06:38:10;9.20;;;3.17;;
38111;SDS011;64011;56.312;44.048;2023-04-25T06:40:10;10.60;;;2.60;;
38111;SDS011;64011;56.312;44.048;2023-04-25T06:42:11;11.00;;;3.13;;
38111;SDS011;64011;56.312;44.048;2023-04-25T06:44:12;7.82;;;2.72;;
38111;SDS011;64011;56.312;44.048;2023-04-25T06:46:14;12.63;;;3.22;;
38111;SDS011;64011;56.312;44.048;2023-04-25T06:48:15;12.70;;;3.05;;
38111;SDS011;64011;56.312;44.048;2023-04-25T06:50:16;13.00;;;3.38;;
38111;SDS011;64011;56.312;44.048;2023-04-25T06:52:17;9.15;;;2.92;;
38111;SDS011;64011;56.312;44.048;2023-04-25T06:54:18;9.05;;;2.70;;
38111;SDS011;64011;56.312;44.048;2023-04-25T06:56:19;11.93;;;2.90;;
38111;SDS011;64011;56.312;44.048;2023-04-25T06:58:20;10.25;;;2.67;;
38111;SDS011;64011;56.312;44.048;2023-04-25T07:00:20;12.07;;;2.90;;
38111;SDS011;64011;56.312;44.048;2023-04-25T07:02:23;11.25;;;2.78;;
38111;SDS011;64011;56.312;44.048;2023-04-25T07:04:24;10.38;;;2.50;;
38111;SDS011;64011;56.312;44.048;2023-04-25T07:06:25;7.60;;;2.25;;
38111;SDS011;64011;56.312;44.048;2023-04-25T07:08:25;10.88;;;2.50;;
38111;SDS011;64011;56.312;44.048;2023-04-25T07:10:26;9.45;;;2.63;;
38111;SDS011;64011;56.312;44.048;2023-04-25T07:12:27;9.15;;;2.72;;
38111;SDS011;64011;56.312;44.048;2023-04-25T07:14:28;11.82;;;3.22;;
38111;SDS011;64011;56.312;44.048;2023-04-25T07:16:29;8.55;;;2.25;;
38111;SDS011;64011;56.312;44.048;2023-04-25T07:18:31;8.32;;;2.30;;
38111;SDS011;64011;56.312;44.048;2023-04-25T07:20:32;8.77;;;2.45;;
38111;SDS011;64011;56.312;44.048;2023-04-25T07:22:33;11.00;;;2.47;;
38111;SDS011;64011;56.312;44.048;2023-04-25T07:24:34;10.75;;;2.88;;
38111;SDS011;64011;56.312;44.048;2023-04-25T07:26:35;11.23;;;2.88;;
38111;SDS011;64011;56.312;44.048;2023-04-25T07:28:35;9.80;;;2.58;;
38111;SDS011;64011;56.312;44.048;2023-04-25T07:30:36;8.95;;;2.30;;
38111;SDS011;64011;56.312;44.048;2023-04-25T07:32:38;13.52;;;2.75;;
38111;SDS011;64011;56.312;44.048;2023-04-25T07:34:40;8.48;;;2.40;;
38111;SDS011;64011;56.312;44.048;2023-04-25T07:36:41;9.65;;;2.70;;
38111;SDS011;64011;56.312;44.048;2023-04-25T07:38:42;7.78;;;2.40;;
38111;SDS011;64011;56.312;44.048;2023-04-25T07:40:43;6.25;;;2.20;;
38111;SDS011;64011;56.312;44.048;2023-04-25T07:42:44;7.57;;;1.92;;
38111;SDS011;64011;56.312;44.048;2023-04-25T07:44:44;5.40;;;1.92;;
38111;SDS011;64011;56.312;44.048;2023-04-25T07:46:45;6.65;;;2.00;;
38111;SDS011;64011;56.312;44.048;2023-04-25T07:48:46;10.27;;;2.17;;
38111;SDS011;64011;56.312;44.048;2023-04-25T07:50:49;10.13;;;2.20;;
38111;SDS011;64011;56.312;44.048;2023-04-25T07:52:49;11.52;;;2.15;;
38111;SDS011;64011;56.312;44.048;2023-04-25T07:54:50;10.85;;;2.58;;
38111;SDS011;64011;56.312;44.048;2023-04-25T07:56:51;16.27;;;2.80;;
38111;SDS011;64011;56.312;44.048;2023-04-25T07:58:52;6.97;;;2.20;;
38111;SDS011;64011;56.312;44.048;2023-04-25T08:00:53;9.13;;;2.08;;
38111;SDS011;64011;56.312;44.048;2023-04-25T08:02:54;7.10;;;1.88;;
38111;SDS011;64011;56.312;44.048;2023-04-25T08:04:55;6.78;;;1.80;;
38111;SDS011;64011;56.312;44.048;2023-04-25T08:06:57;10.77;;;2.10;;
38111;SDS011;64011;56.312;44.048;2023-04-25T08:08:58;9.60;;;2.70;;
38111;SDS011;64011;56.312;44.048;2023-04-25T08:10:59;6.30;;;1.70;;
38111;SDS011;64011;56.312;44.048;2023-04-25T08:12:59;8.25;;;1.95;;
38111;SDS011;64011;56.312;44.048;2023-04-25T08:15:00;4.47;;;1.80;;
38111;SDS011;64011;56.312;44.048;2023-04-25T08:17:01;8.48;;;2.20;;
38111;SDS011;64011;56.312;44.048;2023-04-25T08:19:02;7.97;;;2.05;;
38111;SDS011;64011;56.312;44.048;2023-04-25T08:21:03;6.72;;;1.95;;
38111;SDS011;64011;56.312;44.048;2023-04-25T08:23:05;9.13;;;1.88;;
38111;SDS011;64011;56.312;44.048;2023-04-25T08:25:06;9.70;;;2.10;;
38111;SDS011;64011;56.312;44.048;2023-04-25T08:27:07;10.57;;;2.10;;
38111;SDS011;64011;56.312;44.048;2023-04-25T08:29:08;6.85;;;1.67;;
38111;SDS011;64011;56.312;44.048;2023-04-25T08:31:09;9.90;;;3.20;;
38111;SDS011;64011;56.312;44.048;2023-04-25T08:33:10;6.35;;;1.55;;
38111;SDS011;64011;56.312;44.048;2023-04-25T08:35:10;7.75;;;1.98;;
38111;SDS011;64011;56.312;44.048;2023-04-25T08:37:11;12.82;;;2.17;;
38111;SDS011;64011;56.312;44.048;2023-04-25T08:39:13;6.68;;;1.83;;
38111;SDS011;64011;56.312;44.048;2023-04-25T08:41:14;6.60;;;1.90;;
38111;SDS011;64011;56.312;44.048;2023-04-25T08:43:15;6.18;;;1.98;;
38111;SDS011;64011;56.312;44.048;2023-04-25T08:45:18;6.97;;;1.90;;
38111;SDS011;64011;56.312;44.048;2023-04-25T08:47:19;8.25;;;1.70;;
38111;SDS011;64011;56.312;44.048;2023-04-25T08:49:22;5.95;;;1.70;;
38111;SDS011;64011;56.312;44.048;2023-04-25T08:51:23;9.40;;;1.50;;
38111;SDS011;64011;56.312;44.048;2023-04-25T08:53:26;6.70;;;1.73;;
38111;SDS011;64011;56.312;44.048;2023-04-25T08:55:31;5.22;;;1.70;;
38111;SDS011;64011;56.312;44.048;2023-04-25T08:57:32;5.15;;;1.80;;
38111;SDS011;64011;56.312;44.048;2023-04-25T08:59:34;5.13;;;1.95;;
38111;SDS011;64011;56.312;44.048;2023-04-25T09:01:35;7.65;;;1.90;;
38111;SDS011;64011;56.312;44.048;2023-04-25T09:03:36;6.88;;;1.80;;
38111;SDS011;64011;56.312;44.048;2023-04-25T09:05:38;5.97;;;1.70;;
38111;SDS011;64011;56.312;44.048;2023-04-25T09:07:40;6.97;;;1.50;;
38111;SDS011;64011;56.312;44.048;2023-04-25T09:09:41;9.57;;;1.92;;
38111;SDS011;64011;56.312;44.048;2023-04-25T09:11:43;10.02;;;2.20;;
38111;SDS011;64011;56.312;44.048;2023-04-25T09:13:44;8.10;;;1.73;;
38111;SDS011;64011;56.312;44.048;2023-04-25T09:15:49;9.75;;;1.90;;
38111;SDS011;64011;56.312;44.048;2023-04-25T09:17:54;10.82;;;2.20;;
38111;SDS011;64011;56.312;44.048;2023-04-25T09:19:56;18.38;;;2.28;;
38111;SDS011;64011;56.312;44.048;2023-04-25T09:22:07;12.43;;;2.50;;
38111;SDS011;64011;56.312;44.048;2023-04-25T16:58:05;10.68;;;4.55;;
38111;SDS011;64011;56.312;44.048;2023-04-25T17:00:07;13.25;;;5.13;;
38111;SDS011;64011;56.312;44.048;2023-04-25T17:02:09;15.68;;;5.82;;
38111;SDS011;64011;56.312;44.048;2023-04-25T17:04:11;13.73;;;5.80;;
38111;SDS011;64011;56.312;44.048;2023-04-25T17:06:12;12.38;;;4.38;;
38111;SDS011;64011;56.312;44.048;2023-04-25T17:08:13;14.48;;;5.55;;
38111;SDS011;64011;56.312;44.048;2023-04-25T17:10:14;15.13;;;6.10;;
38111;SDS011;64011;56.312;44.048;2023-04-25T17:12:15;13.20;;;4.95;;
38111;SDS011;64011;56.312;44.048;2023-04-25T17:14:17;13.63;;;5.47;;
38111;SDS011;64011;56.312;44.048;2023-04-25T17:16:18;12.00;;;4.57;;
38111;SDS011;64011;56.312;44.048;2023-04-25T17:18:19;11.90;;;4.82;;
38111;SDS011;64011;56.312;44.048;2023-04-25T17:20:21;12.25;;;4.72;;
38111;SDS011;64011;56.312;44.048;2023-04-25T17:22:22;11.65;;;4.35;;
38111;SDS011;64011;56.312;44.048;2023-04-25T17:24:24;13.77;;;4.82;;
38111;SDS011;64011;56.312;44.048;2023-04-25T17:26:25;11.50;;;4.53;;
38111;SDS011;64011;56.312;44.048;2023-04-25T17:28:26;13.32;;;5.28;;
38111;SDS011;64011;56.312;44.048;2023-04-25T17:30:29;11.20;;;4.55;;
38111;SDS011;64011;56.312;44.048;2023-04-25T17:32:30;13.98;;;5.50;;
38111;SDS011;64011;56.312;44.048;2023-04-25T17:34:31;12.65;;;5.53;;
38111;SDS011;64011;56.312;44.048;2023-04-25T17:36:32;15.57;;;6.25;;
38111;SDS011;64011;56.312;44.048;2023-04-25T17:38:32;11.63;;;4.95;;
38111;SDS011;64011;56.312;44.048;2023-04-25T17:40:33;13.98;;;6.50;;
38111;SDS011;64011;56.312;44.048;2023-04-25T17:42:35;10.23;;;4.82;;
38111;SDS011;64011;56.312;44.048;2023-04-25T17:44:37;13.55;;;5.22;;
38111;SDS011;64011;56.312;44.048;2023-04-25T17:46:39;11.95;;;4.40;;
38111;SDS011;64011;56.312;44.048;2023-04-25T17:48:40;13.77;;;5.13;;
38111;SDS011;64011;56.312;44.048;2023-04-25T17:50:41;14.93;;;5.75;;
38111;SDS011;64011;56.312;44.048;2023-04-25T17:52:42;11.13;;;4.00;;
38111;SDS011;64011;56.312;44.048;2023-04-25T17:54:45;13.05;;;4.15;;
38111;SDS011;64011;56.312;44.048;2023-04-25T17:56:47;11.77;;;5.60;;
38111;SDS011;64011;56.312;44.048;2023-04-25T17:58:48;11.65;;;4.50;;
38111;SDS011;64011;56.312;44.048;2023-04-25T18:00:49;11.15;;;3.92;;
38111;SDS011;64011;56.312;44.048;2023-04-25T18:02:52;11.85;;;5.45;;
38111;SDS011;64011;56.312;44.048;2023-04-25T18:04:52;11.98;;;4.93;;
38111;SDS011;64011;56.312;44.048;2023-04-25T18:06:53;11.18;;;3.50;;
38111;SDS011;64011;56.312;44.048;2023-04-25T18:08:54;13.57;;;4.82;;
38111;SDS011;64011;56.312;44.048;2023-04-25T18:10:55;11.10;;;4.35;;
38111;SDS011;64011;56.312;44.048;2023-04-25T18:12:56;11.95;;;4.53;;
38111;SDS011;64011;56.312;44.048;2023-04-25T18:14:57;11.02;;;4.20;;
38111;SDS011;64011;56.312;44.048;2023-04-25T18:16:58;9.13;;;3.78;;
38111;SDS011;64011;56.312;44.048;2023-04-25T18:19:00;7.43;;;3.13;;
38111;SDS011;64011;56.312;44.048;2023-04-25T18:21:01;14.02;;;4.22;;
38111;SDS011;64011;56.312;44.048;2023-04-25T18:23:02;13.50;;;4.50;;
38111;SDS011;64011;56.312;44.048;2023-04-25T18:25:04;12.57;;;4.30;;
38111;SDS011;64011;56.312;44.048;2023-04-25T18:27:05;7.43;;;2.70;;
38111;SDS011;64011;56.312;44.048;2023-04-25T18:29:06;12.57;;;4.35;;
38111;SDS011;64011;56.312;44.048;2023-04-25T18:31:08;11.65;;;4.57;;
38111;SDS011;64011;56.312;44.048;2023-04-25T18:33:08;11.13;;;4.00;;
38111;SDS011;64011;56.312;44.048;2023-04-25T18:35:11;11.63;;;4.57;;
38111;SDS011;64011;56.312;44.048;2023-04-25T18:37:12;10.88;;;4.15;;
38111;SDS011;64011;56.312;44.048;2023-04-25T18:39:13;10.98;;;4.22;;
38111;SDS011;64011;56.312;44.048;2023-04-25T18:41:14;13.48;;;4.70;;
38111;SDS011;64011;56.312;44.048;2023-04-25T18:43:15;10.82;;;4.70;;
38111;SDS011;64011;56.312;44.048;2023-04-25T18:45:16;11.88;;;4.72;;
38111;SDS011;64011;56.312;44.048;2023-04-25T18:47:17;10.38;;;4.45;;
38111;SDS011;64011;56.312;44.048;2023-04-25T18:49:18;10.57;;;4.13;;
38111;SDS011;64011;56.312;44.048;2023-04-25T18:51:24;8.90;;;3.97;;
38111;SDS011;64011;56.312;44.048;2023-04-25T18:53:25;10.40;;;3.95;;
38111;SDS011;64011;56.312;44.048;2023-04-25T18:55:26;13.15;;;5.50;;
38111;SDS011;64011;56.312;44.048;2023-04-25T18:57:27;11.25;;;4.63;;
38111;SDS011;64011;56.312;44.048;2023-04-25T18:59:28;10.13;;;3.80;;
38111;SDS011;64011;56.312;44.048;2023-04-25T19:01:29;10.90;;;4.57;;
38111;SDS011;64011;56.312;44.048;2023-04-25T19:03:30;7.07;;;2.90;;
38111;SDS011;64011;56.312;44.048;2023-04-25T19:05:31;11.52;;;4.63;;
38111;SDS011;64011;56.312;44.048;2023-04-25T19:07:33;14.18;;;5.47;;
38111;SDS011;64011;56.312;44.048;2023-04-25T19:09:34;12.35;;;5.22;;
38111;SDS011;64011;56.312;44.048;2023-04-25T19:11:35;12.40;;;5.25;;
38111;SDS011;64011;56.312;44.048;2023-04-25T19:13:37;13.68;;;5.72;;
38111;SDS011;64011;56.312;44.048;2023-04-25T19:15:38;12.80;;;6.03;;
38111;SDS011;64011;56.312;44.048;2023-04-25T19:17:39;27.52;;;12.20;;
38111;SDS011;64011;56.312;44.048;2023-04-25T19:19:40;35.33;;;16.80;;
38111;SDS011;64011;56.312;44.048;2023-04-25T19:21:41;13.77;;;5.18;;
38111;SDS011;64011;56.312;44.048;2023-04-25T19:23:43;14.95;;;5.97;;
38111;SDS011;64011;56.312;44.048;2023-04-25T19:25:44;16.60;;;8.82;;